Time;durP1;ratioP1;P1;durP2;ratioP2;P2;SDS_P1;SDS_P2;PMS_P1;PMS_P2;Temp;Humidity;BMP_temperature;BMP_pressure;BME280_temperature;BME280_humidity;BME280_pressure;Samples;Min_cycle;Max_cycle;Signal;HPM_P1;HPM_P2
2020/12/19 00:01:07;;;;;;;27.70;18.20;;;5.70;91.40;;;;;;5086105;28;20593;-77
2020/12/19 00:03:33;;;;;;;28.27;17.47;;;5.70;91.30;;;;;;5076957;28;20024;-76
2020/12/19 00:05:58;;;;;;;23.33;16.60;;;5.70;91.40;;;;;;5090342;28;20058;-77
2020/12/19 00:08:24;;;;;;;26.60;18.30;;;5.70;91.40;;;;;;5084786;28;20036;-76
2020/12/19 00:10:50;;;;;;;28.13;18.83;;;5.60;91.40;;;;;;5074077;28;20070;-76
2020/12/19 00:13:16;;;;;;;28.77;17.80;;;5.60;91.40;;;;;;5091305;28;20051;-77
2020/12/19 00:15:41;;;;;;;27.23;18.47;;;5.70;91.40;;;;;;5092265;28;20530;-77
2020/12/19 00:18:07;;;;;;;27.43;18.10;;;5.70;91.40;;;;;;5090854;28;20651;-77
2020/12/19 00:20:32;;;;;;;27.17;18.30;;;5.70;91.40;;;;;;5087206;28;20046;-77
2020/12/19 00:22:58;;;;;;;28.13;17.90;;;5.60;91.50;;;;;;5075264;28;20039;-76
2020/12/19 00:25:23;;;;;;;30.37;18.63;;;5.60;91.50;;;;;;5089989;28;20060;-76
2020/12/19 00:27:49;;;;;;;25.50;17.50;;;5.60;91.50;;;;;;5109769;28;20436;-76
2020/12/19 00:30:15;;;;;;;30.13;19.53;;;5.60;91.50;;;;;;5088846;28;20032;-76
2020/12/19 00:32:41;;;;;;;31.13;18.57;;;5.60;91.50;;;;;;5079117;28;20107;-77
2020/12/19 00:35:08;;;;;;;26.83;18.03;;;5.60;91.50;;;;;;5109712;28;20047;-77
2020/12/19 00:37:38;;;;;;;28.93;18.17;;;5.50;91.50;;;;;;5071300;28;20028;-76
2020/12/19 00:40:04;;;;;;;26.13;17.40;;;5.50;91.50;;;;;;5101639;28;20032;-77
2020/12/19 00:42:29;;;;;;;27.43;17.50;;;5.50;91.50;;;;;;5109974;28;20031;-77
2020/12/19 00:44:55;;;;;;;27.47;17.07;;;5.50;91.50;;;;;;5091592;28;20032;-77
2020/12/19 00:47:20;;;;;;;27.93;18.50;;;5.60;91.50;;;;;;5096422;28;20039;-77
2020/12/19 00:49:46;;;;;;;28.73;19.37;;;5.50;91.50;;;;;;5089208;28;20059;-77
2020/12/19 00:52:12;;;;;;;25.47;16.67;;;5.60;91.60;;;;;;5092991;28;20119;-77
2020/12/19 00:54:37;;;;;;;32.07;19.37;;;5.60;91.60;;;;;;5074496;28;20028;-77
2020/12/19 00:57:03;;;;;;;27.90;18.63;;;5.50;91.60;;;;;;5091108;28;20502;-76
2020/12/19 00:59:28;;;;;;;27.20;18.70;;;5.50;91.70;;;;;;5053530;28;20031;-77
2020/12/19 01:01:54;;;;;;;27.03;17.53;;;5.50;91.70;;;;;;5055350;28;20429;-77
2020/12/19 01:04:23;;;;;;;26.57;18.10;;;5.60;91.70;;;;;;5105421;28;20118;-77
2020/12/19 01:06:48;;;;;;;28.87;19.67;;;5.50;91.70;;;;;;5094143;28;20109;-77
2020/12/19 01:09:14;;;;;;;32.97;20.10;;;5.60;91.70;;;;;;5094879;28;20467;-77
2020/12/19 01:11:40;;;;;;;34.60;19.00;;;5.50;91.70;;;;;;5093500;28;20118;-77
2020/12/19 01:14:05;;;;;;;34.83;21.73;;;5.50;91.80;;;;;;5078482;28;20062;-77
2020/12/19 01:16:32;;;;;;;33.07;21.10;;;5.50;91.80;;;;;;5092910;28;20039;-77
2020/12/19 01:18:59;;;;;;;32.37;20.53;;;5.50;91.80;;;;;;5076416;28;20032;-76
2020/12/19 01:21:27;;;;;;;36.47;22.93;;;5.50;91.80;;;;;;5093266;28;20047;-76
2020/12/19 01:23:53;;;;;;;31.17;20.17;;;5.50;91.80;;;;;;5112953;28;20038;-77
2020/12/19 01:26:19;;;;;;;36.43;21.80;;;5.50;91.80;;;;;;5113023;28;20042;-76
2020/12/19 01:28:46;;;;;;;34.40;21.53;;;5.50;91.80;;;;;;5111210;28;20635;-77
2020/12/19 01:31:14;;;;;;;33.27;21.03;;;5.50;91.90;;;;;;5091602;28;20548;-77
2020/12/19 01:33:39;;;;;;;33.53;21.10;;;5.40;91.90;;;;;;5081637;28;20031;-77
2020/12/19 01:36:13;;;;;;;35.90;22.20;;;5.40;91.90;;;;;;5113514;28;20028;-77
2020/12/19 01:38:39;;;;;;;34.37;22.90;;;5.40;91.90;;;;;;5093706;28;20024;-77
2020/12/19 01:41:05;;;;;;;39.20;24.20;;;5.40;92.00;;;;;;5095074;28;20035;-77
2020/12/19 01:43:52;;;;;;;35.23;22.10;;;5.40;92.10;;;;;;5093098;28;20028;-76
2020/12/19 01:46:51;;;;;;;30.70;20.90;;;5.40;92.10;;;;;;5095260;28;20050;-77
2020/12/19 01:49:17;;;;;;;37.53;21.77;;;5.40;92.10;;;;;;5105086;28;20118;-77
2020/12/19 01:51:43;;;;;;;33.23;21.27;;;5.30;92.10;;;;;;5093637;28;20142;-77
2020/12/19 01:54:09;;;;;;;40.67;24.33;;;5.30;92.10;;;;;;5077237;28;20032;-76
2020/12/19 01:56:52;;;;;;;39.03;24.13;;;5.30;92.20;;;;;;5093922;28;20035;-77
2020/12/19 01:59:19;;;;;;;39.07;24.97;;;5.40;92.30;;;;;;5091578;28;20023;-77
2020/12/19 02:01:54;;;;;;;39.97;23.10;;;5.30;92.30;;;;;;5078124;28;20340;-77
2020/12/19 02:04:23;;;;;;;38.47;23.17;;;5.30;92.30;;;;;;5094369;28;20027;-77
2020/12/19 02:06:57;;;;;;;38.23;25.03;;;5.30;92.30;;;;;;5093727;28;20034;-77
2020/12/19 02:09:28;;;;;;;35.80;23.33;;;5.30;92.40;;;;;;5092116;28;20030;-77
2020/12/19 02:11:54;;;;;;;35.73;23.30;;;5.30;92.30;;;;;;5112773;28;20076;-77
2020/12/19 02:14:20;;;;;;;39.60;25.17;;;5.30;92.30;;;;;;5089307;28;20407;-77
2020/12/19 02:17:03;;;;;;;39.97;25.07;;;5.30;92.40;;;;;;5089492;28;20077;-77
2020/12/19 02:19:29;;;;;;;42.65;26.63;;;5.20;92.50;;;;;;5087861;28;20023;-76
2020/12/19 02:21:56;;;;;;;34.60;23.63;;;5.30;92.50;;;;;;5090044;28;20122;-77
2020/12/19 02:24:22;;;;;;;40.23;25.30;;;5.20;92.50;;;;;;5090152;28;20024;-77
2020/12/19 02:26:49;;;;;;;42.37;25.47;;;5.20;92.50;;;;;;5068997;28;20605;-77
2020/12/19 02:29:16;;;;;;;40.07;26.10;;;5.20;92.60;;;;;;5082545;28;20405;-77
2020/12/19 02:31:43;;;;;;;39.63;25.73;;;5.30;92.60;;;;;;5091163;28;20498;-77
2020/12/19 02:34:08;;;;;;;44.53;25.53;;;5.30;92.70;;;;;;5091552;28;20742;-77
2020/12/19 02:36:35;;;;;;;38.03;24.87;;;5.30;92.60;;;;;;5090231;28;20039;-77
2020/12/19 02:39:00;;;;;;;42.27;24.73;;;5.30;92.60;;;;;;5071066;28;20032;-77
2020/12/19 02:41:26;;;;;;;37.27;23.07;;;5.30;92.60;;;;;;5073915;28;20031;-77
2020/12/19 02:44:01;;;;;;;38.33;24.53;;;5.30;92.60;;;;;;5089904;28;20044;-77
2020/12/19 02:46:26;;;;;;;33.67;22.47;;;5.30;92.70;;;;;;5087888;28;20028;-77
2020/12/19 02:48:52;;;;;;;38.00;24.33;;;5.30;92.70;;;;;;5090127;28;20462;-77
2020/12/19 02:51:18;;;;;;;39.17;23.97;;;5.30;92.70;;;;;;5072844;28;20089;-78
2020/12/19 02:53:43;;;;;;;41.30;24.30;;;5.30;92.70;;;;;;5088427;28;20040;-77
2020/12/19 02:56:09;;;;;;;39.17;23.10;;;5.30;92.70;;;;;;5091985;28;20420;-77
2020/12/19 02:58:35;;;;;;;36.87;24.23;;;5.30;92.70;;;;;;5091850;28;20060;-77
2020/12/19 03:01:01;;;;;;;36.40;23.77;;;5.30;92.70;;;;;;5079749;28;20043;-77
2020/12/19 03:03:26;;;;;;;36.20;23.83;;;5.40;92.70;;;;;;5076917;28;20028;-77
2020/12/19 03:05:52;;;;;;;37.77;23.67;;;5.30;92.70;;;;;;5072534;28;20077;-77
2020/12/19 03:08:18;;;;;;;37.43;25.13;;;5.30;92.70;;;;;;5088996;28;20055;-77
2020/12/19 03:10:43;;;;;;;37.57;23.83;;;5.30;92.70;;;;;;5089440;28;20024;-77
2020/12/19 03:13:10;;;;;;;37.60;24.23;;;5.30;92.70;;;;;;5072174;28;20048;-76
2020/12/19 03:15:36;;;;;;;38.03;24.57;;;5.30;92.70;;;;;;5088501;28;20036;-77
2020/12/19 03:18:01;;;;;;;41.93;24.60;;;5.30;92.70;;;;;;5087876;28;20027;-77
2020/12/19 03:20:27;;;;;;;34.57;22.70;;;5.30;92.70;;;;;;5088116;28;20016;-77
2020/12/19 03:22:52;;;;;;;37.73;24.70;;;5.30;92.70;;;;;;5089123;28;20093;-77
2020/12/19 03:25:18;;;;;;;37.53;23.00;;;5.30;92.80;;;;;;5069043;28;20056;-77
2020/12/19 03:27:44;;;;;;;35.70;23.27;;;5.30;92.80;;;;;;5069309;28;20075;-77
2020/12/19 03:30:10;;;;;;;42.23;25.03;;;5.30;92.80;;;;;;5087437;28;20032;-76
2020/12/19 03:32:35;;;;;;;36.10;22.80;;;5.30;92.80;;;;;;5089018;28;20518;-76
2020/12/19 03:35:01;;;;;;;34.80;22.33;;;5.30;92.80;;;;;;5093584;28;20031;-77
2020/12/19 03:37:26;;;;;;;38.77;24.30;;;5.30;92.80;;;;;;5088823;28;20039;-77
2020/12/19 03:39:52;;;;;;;36.30;22.43;;;5.30;92.80;;;;;;5084980;28;20103;-77
2020/12/19 03:42:18;;;;;;;32.57;21.90;;;5.30;92.80;;;;;;5078553;28;20035;-75
2020/12/19 03:44:43;;;;;;;38.40;22.93;;;5.30;92.80;;;;;;5083714;28;20094;-77
2020/12/19 03:47:09;;;;;;;33.73;22.50;;;5.30;92.80;;;;;;5067603;28;20070;-77
2020/12/19 03:49:35;;;;;;;37.47;23.67;;;5.30;92.80;;;;;;5083243;28;20036;-76
2020/12/19 03:52:01;;;;;;;36.30;21.87;;;5.30;92.80;;;;;;5088311;28;20040;-77
2020/12/19 03:54:26;;;;;;;35.27;23.20;;;5.30;92.80;;;;;;5068577;28;20036;-77
2020/12/19 03:56:52;;;;;;;35.67;23.03;;;5.30;92.80;;;;;;5068464;28;20020;-77
2020/12/19 03:59:20;;;;;;;34.33;21.80;;;5.30;93.10;;;;;;5078069;28;20033;-77
2020/12/19 04:01:46;;;;;;;39.13;22.70;;;5.30;92.90;;;;;;5067625;28;20132;-77
2020/12/19 04:04:11;;;;;;;38.93;23.43;;;5.30;92.90;;;;;;5082231;28;20115;-77
2020/12/19 04:06:37;;;;;;;34.30;21.87;;;5.40;92.90;;;;;;5088836;28;20111;-77
2020/12/19 04:09:03;;;;;;;33.10;20.33;;;5.30;92.80;;;;;;5061508;28;20037;-77
2020/12/19 04:11:28;;;;;;;37.27;22.03;;;5.30;92.80;;;;;;5069082;28;20052;-77
2020/12/19 04:13:54;;;;;;;39.47;23.23;;;5.30;92.80;;;;;;5025808;28;20376;-77
2020/12/19 04:16:19;;;;;;;36.67;22.37;;;5.30;92.80;;;;;;5063635;28;20029;-77
2020/12/19 04:18:45;;;;;;;36.50;21.73;;;5.30;92.90;;;;;;5065968;28;20036;-77
2020/12/19 04:21:10;;;;;;;34.70;21.27;;;5.30;92.90;;;;;;5065364;28;20033;-75
2020/12/19 04:23:36;;;;;;;33.50;21.07;;;5.30;92.80;;;;;;5048416;28;20029;-75
2020/12/19 04:26:02;;;;;;;31.20;21.40;;;5.30;92.90;;;;;;5061067;28;20033;-75
2020/12/19 04:28:28;;;;;;;37.00;21.87;;;5.30;92.90;;;;;;5063581;28;20059;-77
2020/12/19 04:30:54;;;;;;;32.23;20.37;;;5.30;93.10;;;;;;5049215;28;20013;-76
2020/12/19 04:33:20;;;;;;;35.23;22.17;;;5.30;92.80;;;;;;5063962;28;20039;-76
2020/12/19 04:35:45;;;;;;;35.43;21.37;;;5.30;92.90;;;;;;5067281;28;20496;-76
2020/12/19 04:38:11;;;;;;;34.40;22.07;;;5.30;92.90;;;;;;5053338;28;20033;-76
2020/12/19 04:40:37;;;;;;;33.07;21.57;;;5.30;92.90;;;;;;5072414;28;20037;-75
2020/12/19 04:43:15;;;;;;;32.10;21.27;;;5.30;92.90;;;;;;5073027;28;20032;-76
2020/12/19 04:45:42;;;;;;;32.73;21.30;;;5.30;92.90;;;;;;5053260;28;20087;-75
2020/12/19 04:48:07;;;;;;;30.90;20.37;;;5.30;92.90;;;;;;5046798;28;20029;-76
2020/12/19 04:50:37;;;;;;;32.07;21.33;;;5.30;92.90;;;;;;5054992;28;20143;-76
2020/12/19 04:53:15;;;;;;;30.63;20.03;;;5.40;93.00;;;;;;5073835;28;20024;-76
2020/12/19 04:55:42;;;;;;;34.80;22.83;;;5.40;93.00;;;;;;5071031;28;20373;-75
2020/12/19 04:58:11;;;;;;;29.33;20.50;;;5.40;93.00;;;;;;5071520;28;20099;-76
2020/12/19 05:00:36;;;;;;;33.20;21.47;;;5.40;93.00;;;;;;5072094;28;20545;-75
2020/12/19 05:03:02;;;;;;;30.00;20.73;;;5.40;92.90;;;;;;5071276;28;20041;-76
2020/12/19 05:05:28;;;;;;;31.63;20.93;;;5.40;92.90;;;;;;5063371;28;20039;-76
2020/12/19 05:07:54;;;;;;;33.40;20.50;;;5.50;92.90;;;;;;5035008;28;20037;-75
2020/12/19 05:10:19;;;;;;;31.53;19.57;;;5.50;92.80;;;;;;5038989;28;20036;-76
2020/12/19 05:12:52;;;;;;;33.07;19.93;;;5.40;92.70;;;;;;5044434;28;20051;-76
2020/12/19 05:15:18;;;;;;;29.95;19.73;;;5.40;92.70;;;;;;5071209;28;20024;-76
2020/12/19 05:17:51;;;;;;;31.00;19.33;;;5.40;92.70;;;;;;5072502;28;20093;-76
2020/12/19 05:20:17;;;;;;;27.85;19.02;;;5.40;92.70;;;;;;5070346;28;20025;-76
2020/12/19 05:22:46;;;;;;;30.53;19.23;;;5.30;92.70;;;;;;5067524;28;20072;-76
2020/12/19 05:25:14;;;;;;;27.53;18.73;;;5.30;92.70;;;;;;5063972;28;20037;-76
2020/12/19 05:27:42;;;;;;;30.43;18.33;;;5.30;92.70;;;;;;5068969;28;20123;-75
2020/12/19 05:30:08;;;;;;;30.07;19.00;;;5.40;92.70;;;;;;5071121;28;20060;-76
2020/12/19 05:32:41;;;;;;;29.63;19.57;;;5.30;92.70;;;;;;5058528;28;20564;-76
2020/12/19 05:35:07;;;;;;;27.93;19.30;;;5.30;92.70;;;;;;5070604;28;20052;-76
2020/12/19 05:37:32;;;;;;;31.00;19.33;;;5.30;92.70;;;;;;5071756;28;20074;-76
2020/12/19 05:39:58;;;;;;;29.33;18.80;;;5.30;92.70;;;;;;5066276;28;20652;-77
2020/12/19 05:42:24;;;;;;;31.27;18.40;;;5.30;92.60;;;;;;5045661;28;20066;-76
2020/12/19 05:44:50;;;;;;;33.53;18.23;;;5.30;92.60;;;;;;5054100;28;20028;-76
2020/12/19 05:47:16;;;;;;;26.73;18.40;;;5.30;92.60;;;;;;5069663;28;20037;-76
2020/12/19 05:49:43;;;;;;;24.20;16.73;;;5.30;92.60;;;;;;5067127;28;20032;-75
2020/12/19 05:52:09;;;;;;;28.27;17.77;;;5.30;92.70;;;;;;5067668;28;20029;-76
2020/12/19 05:54:40;;;;;;;27.87;18.57;;;5.30;92.80;;;;;;5059438;28;20473;-76
2020/12/19 05:57:09;;;;;;;27.60;18.47;;;5.40;92.70;;;;;;5051220;28;20027;-76
2020/12/19 05:59:36;;;;;;;31.93;19.00;;;5.40;92.70;;;;;;5066298;28;20029;-76
2020/12/19 06:02:02;;;;;;;32.63;19.57;;;5.40;92.60;;;;;;5071593;28;20134;-76
2020/12/19 06:04:28;;;;;;;28.70;18.90;;;5.40;92.60;;;;;;5050822;28;20033;-76
2020/12/19 06:06:56;;;;;;;30.60;18.47;;;5.40;92.60;;;;;;5065710;28;20040;-76
2020/12/19 06:09:22;;;;;;;31.00;18.03;;;5.40;92.80;;;;;;5046269;28;20102;-76
2020/12/19 06:12:23;;;;;;;27.77;17.97;;;5.50;92.50;;;;;;5052415;28;20032;-77
2020/12/19 06:14:52;;;;;;;30.20;18.20;;;5.50;92.50;;;;;;5066860;28;20140;-77
2020/12/19 06:17:33;;;;;;;28.13;18.37;;;5.50;92.50;;;;;;5069392;28;20028;-76
2020/12/19 06:20:02;;;;;;;32.97;18.60;;;5.50;92.50;;;;;;5069473;28;20036;-76
2020/12/19 06:22:29;;;;;;;26.20;17.57;;;5.50;92.50;;;;;;5069959;28;20028;-77
2020/12/19 06:24:54;;;;;;;26.63;17.67;;;5.50;92.40;;;;;;5070721;28;20040;-76
2020/12/19 06:27:23;;;;;;;28.60;17.53;;;5.50;92.40;;;;;;5070793;28;20224;-76
2020/12/19 06:29:52;;;;;;;30.13;18.23;;;5.60;92.40;;;;;;5069247;28;20040;-76
2020/12/19 06:32:22;;;;;;;30.83;19.40;;;5.60;92.30;;;;;;5070744;28;20103;-77
2020/12/19 06:35:10;;;;;;;28.90;18.70;;;5.60;92.30;;;;;;5053781;28;20035;-77
2020/12/19 06:37:38;;;;;;;27.80;18.17;;;5.60;92.30;;;;;;5071012;28;20171;-76
2020/12/19 06:40:11;;;;;;;28.73;18.57;;;5.60;92.20;;;;;;5067611;28;20640;-76
2020/12/19 06:42:37;;;;;;;27.90;17.88;;;5.60;92.20;;;;;;5052939;28;20043;-76
2020/12/19 06:45:35;;;;;;;28.17;17.97;;;5.60;92.10;;;;;;5068484;28;20028;-76
2020/12/19 06:48:01;;;;;;;29.00;17.47;;;5.70;92.10;;;;;;5024705;28;20837;-76
2020/12/19 06:50:59;;;;;;;30.03;18.13;;;5.70;92.10;;;;;;5070130;28;20029;-76
2020/12/19 06:53:25;;;;;;;27.07;18.70;;;5.70;92.10;;;;;;5062732;28;20041;-76
2020/12/19 06:55:51;;;;;;;29.33;19.67;;;5.60;92.00;;;;;;5055970;28;20033;-76
2020/12/19 06:58:34;;;;;;;26.07;17.63;;;5.70;92.00;;;;;;5061469;28;20040;-76
2020/12/19 07:01:00;;;;;;;29.63;17.30;;;5.70;92.10;;;;;;5054094;28;20036;-77
2020/12/19 07:03:37;;;;;;;25.00;18.20;;;5.70;92.00;;;;;;5062948;28;20033;-78
2020/12/19 07:06:16;;;;;;;28.93;18.67;;;5.70;92.00;;;;;;5063562;28;20093;-78
2020/12/19 07:08:45;;;;;;;28.23;19.30;;;5.70;92.00;;;;;;5070749;28;20016;-77
2020/12/19 07:11:12;;;;;;;25.33;17.03;;;5.70;92.00;;;;;;5052704;28;20028;-78
2020/12/19 07:13:57;;;;;;;27.20;16.60;;;5.80;92.00;;;;;;5082599;28;20040;-78
2020/12/19 07:16:42;;;;;;;28.50;18.17;;;5.80;92.00;;;;;;5089126;28;20029;-78
2020/12/19 07:19:34;;;;;;;27.20;17.70;;;5.80;92.00;;;;;;5089057;28;20040;-77
2020/12/19 07:22:00;;;;;;;28.20;17.87;;;5.90;92.00;;;;;;5086856;28;20135;-79
2020/12/19 07:24:25;;;;;;;27.90;19.17;;;5.90;92.00;;;;;;5090830;28;20116;-79
2020/12/19 07:26:52;;;;;;;26.67;17.57;;;6.00;92.00;;;;;;5076789;28;20036;-78
2020/12/19 07:29:23;;;;;;;29.33;18.37;;;6.00;92.00;;;;;;5093552;28;20036;-78
2020/12/19 07:31:53;;;;;;;24.83;18.00;;;6.00;92.00;;;;;;5090017;28;20024;-77
2020/12/19 07:34:20;;;;;;;25.77;18.40;;;6.10;92.00;;;;;;5090783;28;20027;-79
2020/12/19 07:36:47;;;;;;;24.77;17.70;;;6.10;91.90;;;;;;5073282;28;20028;-77
2020/12/19 07:39:14;;;;;;;30.13;18.80;;;6.20;92.00;;;;;;5091133;28;20024;-79
2020/12/19 07:41:43;;;;;;;29.20;18.53;;;6.20;92.00;;;;;;5091945;28;20028;-79
2020/12/19 07:44:16;;;;;;;27.47;17.27;;;6.30;91.90;;;;;;5089420;28;20118;-80
2020/12/19 07:46:52;;;;;;;25.15;17.65;;;6.30;91.90;;;;;;5086070;28;20508;-78
2020/12/19 07:49:37;;;;;;;27.27;16.97;;;6.40;91.80;;;;;;5069785;28;20036;-78
2020/12/19 07:52:07;;;;;;;24.40;16.50;;;6.40;91.70;;;;;;5069196;28;20025;-77
2020/12/19 07:54:33;;;;;;;27.60;17.73;;;6.50;91.80;;;;;;5069748;28;20052;-79
2020/12/19 07:57:00;;;;;;;25.43;16.70;;;6.50;91.70;;;;;;5069946;28;20097;-78
2020/12/19 07:59:26;;;;;;;26.83;18.17;;;6.50;91.70;;;;;;5072049;28;20028;-78
2020/12/19 08:01:56;;;;;;;28.07;18.67;;;6.60;91.90;;;;;;5077624;28;20452;-80
2020/12/19 08:04:22;;;;;;;28.37;18.67;;;6.70;92.00;;;;;;5089596;28;20066;-78
2020/12/19 08:06:48;;;;;;;26.50;16.67;;;7.00;92.00;;;;;;5069284;28;20057;-78
2020/12/19 08:09:21;;;;;;;23.70;16.60;;;7.20;91.70;;;;;;5072208;28;20043;-79
2020/12/19 08:11:51;;;;;;;25.10;17.13;;;7.40;91.40;;;;;;5061970;28;20475;-78
2020/12/19 08:14:18;;;;;;;22.63;16.43;;;7.60;90.80;;;;;;5110394;28;20044;-79
2020/12/19 08:16:45;;;;;;;28.73;17.87;;;7.80;90.00;;;;;;5064720;28;20035;-78
2020/12/19 08:19:13;;;;;;;20.93;16.00;;;7.90;89.00;;;;;;5076811;28;20030;-78
2020/12/19 08:21:42;;;;;;;23.20;14.77;;;8.20;88.50;;;;;;5092135;28;20035;-78
2020/12/19 08:24:09;;;;;;;20.63;14.40;;;8.40;87.40;;;;;;5090825;28;20055;-78
2020/12/19 08:26:35;;;;;;;19.23;14.17;;;8.60;86.80;;;;;;5112943;28;20080;-79
2020/12/19 08:29:05;;;;;;;21.83;15.33;;;8.70;85.80;;;;;;5110003;28;20089;-78
2020/12/19 08:31:34;;;;;;;20.03;15.67;;;8.90;85.20;;;;;;5093477;28;20046;-78
2020/12/19 08:34:04;;;;;;;22.97;16.63;;;9.00;84.10;;;;;;5091556;28;20184;-79
2020/12/19 08:36:31;;;;;;;20.77;15.23;;;9.10;83.70;;;;;;5076415;28;20032;-78
2020/12/19 08:39:16;;;;;;;23.70;16.00;;;9.20;83.90;;;;;;5110885;28;20028;-78
2020/12/19 08:41:42;;;;;;;24.10;16.17;;;9.40;83.10;;;;;;5092933;28;20019;-78
2020/12/19 08:44:24;;;;;;;19.90;15.27;;;9.50;83.10;;;;;;5112317;28;20066;-78
2020/12/19 08:47:06;;;;;;;18.43;13.87;;;9.70;82.40;;;;;;5094925;28;20645;-77
2020/12/19 08:49:33;;;;;;;18.20;14.67;;;9.80;81.70;;;;;;5090201;28;20023;-79
2020/12/19 08:51:58;;;;;;;17.33;14.13;;;10.00;80.70;;;;;;5054084;28;20070;-78
2020/12/19 08:54:26;;;;;;;19.80;13.43;;;10.10;80.20;;;;;;5092671;28;20075;-78
2020/12/19 08:56:52;;;;;;;19.03;14.20;;;10.20;80.10;;;;;;5089856;28;20126;-76
2020/12/19 08:59:25;;;;;;;18.83;13.57;;;10.40;79.30;;;;;;5088519;28;20107;-77
2020/12/19 09:01:54;;;;;;;19.57;15.43;;;10.40;78.50;;;;;;5092946;28;20526;-80
2020/12/19 09:04:19;;;;;;;20.17;14.30;;;10.50;78.90;;;;;;5090508;28;20016;-79
2020/12/19 09:06:50;;;;;;;19.33;14.07;;;10.70;78.40;;;;;;5090940;28;20039;-79
2020/12/19 09:09:29;;;;;;;21.97;13.20;;;10.80;77.70;;;;;;5089627;28;20076;-78
2020/12/19 09:12:07;;;;;;;19.53;14.37;;;10.80;77.20;;;;;;5090346;28;20024;-78
2020/12/19 09:14:33;;;;;;;17.60;12.47;;;10.90;77.50;;;;;;5073732;28;20051;-78
2020/12/19 09:16:58;;;;;;;17.07;12.87;;;11.10;76.40;;;;;;5109010;28;20028;-77
2020/12/19 09:19:24;;;;;;;17.47;11.80;;;11.10;76.10;;;;;;5092292;27;20462;-78
2020/12/19 09:22:03;;;;;;;15.27;11.63;;;11.30;76.30;;;;;;5079806;28;20024;-78
2020/12/19 09:24:28;;;;;;;15.93;11.73;;;11.50;75.40;;;;;;5098308;28;20030;-78
2020/12/19 09:26:54;;;;;;;14.80;11.83;;;11.60;75.20;;;;;;5096218;28;20032;-77
2020/12/19 09:29:20;;;;;;;15.43;11.83;;;11.70;74.70;;;;;;5097105;28;20038;-79
2020/12/19 09:31:46;;;;;;;15.17;10.80;;;11.80;74.10;;;;;;5097223;28;20019;-78
2020/12/19 09:34:11;;;;;;;13.90;11.03;;;11.90;73.90;;;;;;5096372;28;20662;-78
2020/12/19 09:36:38;;;;;;;15.73;12.03;;;12.00;73.80;;;;;;5079962;28;20034;-78
2020/12/19 09:39:04;;;;;;;18.27;13.50;;;12.20;73.30;;;;;;5095672;28;20023;-79
2020/12/19 09:41:30;;;;;;;22.93;16.23;;;12.40;73.00;;;;;;5096938;28;20677;-78
2020/12/19 09:43:56;;;;;;;15.83;10.83;;;12.60;72.70;;;;;;5095988;28;20036;-76
2020/12/19 09:46:22;;;;;;;15.23;10.17;;;12.80;72.10;;;;;;5097937;28;20058;-78
2020/12/19 09:48:47;;;;;;;13.13;9.67;;;12.90;71.10;;;;;;5107945;28;20027;-77
2020/12/19 09:51:13;;;;;;;14.07;9.85;;;12.90;71.30;;;;;;5112690;28;20039;-78
2020/12/19 09:53:39;;;;;;;11.35;8.32;;;12.90;70.60;;;;;;5127764;28;20031;-79
2020/12/19 09:56:05;;;;;;;12.20;9.02;;;12.90;70.90;;;;;;5128168;28;20026;-79
2020/12/19 09:58:31;;;;;;;12.15;9.25;;;13.10;70.30;;;;;;5104495;28;20413;-79
2020/12/19 10:00:57;;;;;;;14.25;9.57;;;13.20;70.30;;;;;;5099118;28;20028;-77
2020/12/19 10:03:23;;;;;;;9.10;8.18;;;13.40;69.70;;;;;;5098557;28;20027;-79
2020/12/19 10:05:48;;;;;;;9.73;8.27;;;13.60;68.80;;;;;;5081146;28;20030;-79
2020/12/19 10:08:14;;;;;;;13.02;8.23;;;13.50;68.80;;;;;;5096284;28;20027;-79
2020/12/19 10:10:44;;;;;;;10.35;7.97;;;13.10;70.10;;;;;;5091708;28;20061;-79
2020/12/19 10:13:11;;;;;;;9.55;7.60;;;12.80;70.40;;;;;;5070763;28;20051;-77
2020/12/19 10:15:37;;;;;;;9.07;7.57;;;12.60;71.60;;;;;;5068540;28;20067;-77
2020/12/19 10:18:03;;;;;;;10.05;7.88;;;12.60;71.60;;;;;;5052249;28;20072;-79
2020/12/19 10:20:28;;;;;;;9.15;7.60;;;12.80;72.40;;;;;;5034996;28;20534;-80
2020/12/19 10:22:54;;;;;;;9.15;7.05;;;13.20;70.80;;;;;;5040073;28;20063;-78
2020/12/19 10:25:20;;;;;;;11.45;7.53;;;13.40;69.80;;;;;;5065967;28;20135;-78
2020/12/19 10:27:45;;;;;;;8.57;6.63;;;13.60;69.60;;;;;;5049961;28;20368;-78
2020/12/19 10:30:11;;;;;;;10.85;8.00;;;13.70;69.40;;;;;;5068756;28;20048;-79
2020/12/19 10:32:36;;;;;;;9.15;7.40;;;13.80;68.70;;;;;;5037675;28;20040;-80
2020/12/19 10:35:06;;;;;;;11.45;7.95;;;14.00;68.30;;;;;;5071552;28;20028;-79
2020/12/19 10:37:35;;;;;;;9.85;6.32;;;14.10;68.20;;;;;;5071204;28;20040;-77
2020/12/19 10:40:02;;;;;;;7.43;5.80;;;14.40;67.50;;;;;;5068291;28;20683;-77
2020/12/19 10:42:28;;;;;;;10.00;5.90;;;14.70;67.00;;;;;;5059970;28;20032;-77
2020/12/19 10:44:54;;;;;;;6.45;5.15;;;14.80;66.10;;;;;;5058095;28;20048;-76
2020/12/19 10:47:19;;;;;;;7.13;5.30;;;14.70;66.10;;;;;;5058657;28;20040;-77
2020/12/19 10:49:45;;;;;;;8.13;5.80;;;14.60;66.10;;;;;;5053583;28;20110;-77
2020/12/19 10:52:11;;;;;;;7.85;6.03;;;14.40;67.00;;;;;;5069825;28;20119;-79
2020/12/19 10:54:36;;;;;;;9.23;5.72;;;14.10;67.40;;;;;;5070645;28;20039;-80
2020/12/19 10:57:02;;;;;;;6.13;5.00;;;14.10;68.00;;;;;;5049111;28;20094;-77
2020/12/19 10:59:29;;;;;;;8.43;5.53;;;14.00;68.20;;;;;;5037246;28;20098;-79
2020/12/19 11:01:55;;;;;;;7.43;5.70;;;13.90;68.30;;;;;;5050239;28;20029;-79
2020/12/19 11:04:21;;;;;;;7.00;4.72;;;13.70;68.70;;;;;;5050759;28;20556;-78
2020/12/19 11:06:47;;;;;;;8.25;4.75;;;13.60;69.10;;;;;;5049699;28;20043;-78
2020/12/19 11:09:13;;;;;;;6.55;4.95;;;13.70;69.20;;;;;;5033775;28;20029;-79
2020/12/19 11:11:39;;;;;;;4.85;4.10;;;13.70;69.10;;;;;;5050756;28;20040;-79
2020/12/19 11:14:05;;;;;;;6.95;4.43;;;13.90;68.90;;;;;;5058398;28;20057;-77
2020/12/19 11:16:31;;;;;;;6.18;3.83;;;14.10;68.00;;;;;;5088143;28;20593;-78
2020/12/19 11:18:57;;;;;;;6.63;3.60;;;14.10;67.60;;;;;;5088311;28;20077;-79
2020/12/19 11:21:24;;;;;;;6.38;4.10;;;14.10;67.80;;;;;;5099454;28;20028;-78
2020/12/19 11:23:50;;;;;;;7.57;4.00;;;14.20;68.00;;;;;;5072752;28;20033;-79
2020/12/19 11:26:21;;;;;;;5.93;3.15;;;14.30;68.00;;;;;;5086487;28;20024;-78
2020/12/19 11:28:48;;;;;;;4.35;2.90;;;14.50;67.20;;;;;;5061599;28;20111;-78
2020/12/19 11:31:15;;;;;;;5.00;3.22;;;14.80;67.30;;;;;;5059434;28;20028;-78
2020/12/19 11:33:41;;;;;;;6.82;3.72;;;15.00;66.10;;;;;;5082764;28;20265;-78
2020/12/19 11:36:06;;;;;;;7.47;3.38;;;15.00;65.50;;;;;;5086904;28;20040;-79
2020/12/19 11:38:32;;;;;;;4.80;3.17;;;14.80;65.90;;;;;;5090873;28;20093;-78
2020/12/19 11:40:58;;;;;;;7.93;4.05;;;14.60;66.70;;;;;;5089522;28;20039;-78
2020/12/19 11:43:23;;;;;;;6.07;4.10;;;14.40;67.20;;;;;;5062116;28;20036;-78
2020/12/19 11:45:49;;;;;;;5.55;4.68;;;14.30;67.60;;;;;;5083545;28;20035;-78
2020/12/19 11:48:15;;;;;;;6.00;4.03;;;14.30;67.70;;;;;;5064803;28;20040;-79
2020/12/19 11:50:40;;;;;;;5.40;3.85;;;14.10;67.90;;;;;;5067816;28;20036;-78
2020/12/19 11:53:06;;;;;;;5.18;3.65;;;14.00;68.10;;;;;;5089826;28;20065;-78
2020/12/19 11:55:32;;;;;;;5.55;3.30;;;13.90;68.70;;;;;;5088747;28;20127;-77
2020/12/19 11:57:57;;;;;;;4.75;3.75;;;13.80;69.00;;;;;;5078095;28;20051;-78
2020/12/19 12:00:23;;;;;;;5.18;3.78;;;13.70;69.50;;;;;;5050047;28;20021;-78
2020/12/19 12:02:49;;;;;;;4.53;3.40;;;13.70;69.70;;;;;;5086711;28;20055;-79
2020/12/19 12:05:15;;;;;;;6.53;4.13;;;13.60;70.10;;;;;;5086631;28;20039;-78
2020/12/19 12:07:41;;;;;;;6.45;3.35;;;13.60;70.30;;;;;;5090865;28;20044;-79
2020/12/19 12:10:06;;;;;;;4.32;3.47;;;13.50;70.60;;;;;;5055087;28;20414;-78
2020/12/19 12:12:32;;;;;;;4.13;2.65;;;13.50;70.70;;;;;;5067291;28;20025;-77
2020/12/19 12:14:58;;;;;;;5.30;2.72;;;13.40;70.90;;;;;;5083512;28;20027;-78
2020/12/19 12:17:23;;;;;;;5.97;3.33;;;13.40;70.70;;;;;;5065593;28;20036;-78
2020/12/19 12:19:49;;;;;;;4.43;2.65;;;13.40;71.00;;;;;;5087394;28;20436;-78
2020/12/19 12:22:14;;;;;;;3.28;2.42;;;13.40;71.00;;;;;;5069633;28;20065;-78
2020/12/19 12:24:40;;;;;;;7.25;2.95;;;13.40;71.00;;;;;;5087770;28;20032;-77
2020/12/19 12:27:06;;;;;;;5.65;4.35;;;13.40;70.70;;;;;;5069303;28;20039;-77
2020/12/19 12:29:31;;;;;;;6.30;4.28;;;13.50;71.40;;;;;;5087945;28;20127;-77
2020/12/19 12:31:57;;;;;;;10.35;6.63;;;13.50;71.60;;;;;;5038992;28;20815;-78
2020/12/19 12:34:23;;;;;;;6.15;4.53;;;13.50;71.80;;;;;;5061836;28;20034;-78
2020/12/19 12:36:48;;;;;;;6.95;3.47;;;13.50;71.00;;;;;;5092925;28;20489;-77
2020/12/19 12:39:14;;;;;;;4.32;2.70;;;13.60;70.80;;;;;;5091684;28;20050;-76
2020/12/19 12:41:44;;;;;;;6.03;3.67;;;13.60;70.50;;;;;;5091936;28;20035;-76